createdAt,value
2018-01-03T01:38:27.119Z,60.38
2018-01-03T01:38:27.691Z,60.47
2018-01-03T01:38:28.291Z,60.66
2018-01-03T01:38:28.894Z,60.47
2018-01-03T01:38:29.492Z,60.66
2018-01-03T01:38:30.090Z,60.47
2018-01-03T01:38:30.691Z,60.57
2018-01-03T01:38:31.292Z,60.57
2018-01-03T01:39:24.784Z,59.81
2018-01-03T01:39:25.348Z,60.19
2018-01-03T01:39:25.943Z,60.19
2018-01-03T01:39:26.545Z,60.19
2018-01-03T01:39:27.141Z,60.28
2018-01-03T01:39:27.743Z,60.19
2018-01-03T01:39:28.343Z,60.00
2018-01-03T01:39:28.943Z,60.19
2018-01-03T01:40:23.424Z,59.81
2018-01-03T01:40:24.022Z,59.91
2018-01-03T01:40:24.618Z,59.81
2018-01-03T01:40:25.221Z,59.81
2018-01-03T01:40:25.819Z,59.81
2018-01-03T01:40:26.419Z,59.91
2018-01-03T01:40:27.018Z,59.81
2018-01-03T01:40:27.617Z,59.91
2018-01-03T01:41:21.076Z,59.81
2018-01-03T01:41:21.672Z,59.71
2018-01-03T01:41:22.274Z,59.62
2018-01-03T01:41:22.873Z,59.81
2018-01-03T01:41:23.472Z,59.81
2018-01-03T01:41:24.071Z,59.81
2018-01-03T01:41:24.671Z,60.00
2018-01-03T01:41:25.273Z,59.81
2018-01-03T01:42:18.728Z,59.91
2018-01-03T01:42:19.328Z,59.71
2018-01-03T01:42:19.925Z,59.62
2018-01-03T01:42:20.524Z,60.00
2018-01-03T01:42:21.123Z,59.81
2018-01-03T01:42:21.723Z,59.81
2018-01-03T01:42:22.327Z,59.43
2018-01-03T01:42:22.923Z,59.81
2018-01-03T01:43:17.403Z,59.62
2018-01-03T01:43:17.999Z,60.00
2018-01-03T01:43:18.598Z,59.62
2018-01-03T01:43:19.201Z,59.52
2018-01-03T01:43:19.799Z,59.91
2018-01-03T01:43:20.402Z,59.71
2018-01-03T01:43:20.998Z,59.91
2018-01-03T01:43:21.604Z,59.71
2018-01-03T01:44:16.080Z,59.52
2018-01-03T01:44:16.676Z,59.52
2018-01-03T01:44:17.275Z,59.43
2018-01-03T01:44:17.875Z,59.36
2018-01-03T01:44:18.475Z,59.52
2018-01-03T01:44:19.075Z,59.27
2018-01-03T01:44:19.695Z,59.33
2018-01-03T01:44:20.275Z,59.33
2018-01-03T01:45:13.764Z,59.43
2018-01-03T01:45:14.329Z,59.24
2018-01-03T01:45:14.928Z,59.62
2018-01-03T01:45:15.528Z,59.65
2018-01-03T01:45:16.132Z,59.24
2018-01-03T01:45:16.728Z,59.52
2018-01-03T01:45:17.327Z,59.62
2018-01-03T01:45:17.928Z,59.62
2018-01-03T01:46:12.408Z,59.55
2018-01-03T01:46:13.007Z,59.36
2018-01-03T01:46:13.605Z,59.55
2018-01-03T01:46:14.205Z,59.46
2018-01-03T01:46:14.805Z,59.52
2018-01-03T01:46:15.405Z,59.55
2018-01-03T01:46:16.007Z,59.62
2018-01-03T01:46:16.604Z,59.71
2018-01-03T01:47:11.085Z,59.05
2018-01-03T01:47:11.679Z,59.24
2018-01-03T01:47:12.280Z,58.95
2018-01-03T01:47:12.881Z,58.95
2018-01-03T01:47:13.478Z,59.14
2018-01-03T01:47:14.076Z,58.95
2018-01-03T01:47:14.679Z,58.95
2018-01-03T01:47:15.276Z,58.95
2018-01-03T01:48:08.736Z,58.95
2018-01-03T01:48:09.332Z,58.86
2018-01-03T01:48:09.931Z,59.05
2018-01-03T01:48:10.532Z,58.98
2018-01-03T01:48:11.131Z,58.89
2018-01-03T01:48:11.735Z,59.08
2018-01-03T01:48:12.332Z,58.98
2018-01-03T01:48:12.932Z,58.86
2018-01-03T01:49:07.413Z,58.76
2018-01-03T01:49:08.009Z,58.61
2018-01-03T01:49:08.608Z,58.86
2018-01-03T01:49:09.207Z,58.61
2018-01-03T01:49:09.806Z,58.61
2018-01-03T01:49:10.405Z,58.80
2018-01-03T01:49:11.007Z,58.80
2018-01-03T01:49:11.605Z,58.89
2018-01-03T01:50:05.064Z,58.98
2018-01-03T01:50:05.663Z,58.98
2018-01-03T01:50:06.261Z,58.98
2018-01-03T01:50:06.859Z,58.98
2018-01-03T01:50:07.463Z,58.61
2018-01-03T01:50:08.060Z,58.89
2018-01-03T01:50:08.660Z,58.89
2018-01-03T01:50:09.259Z,58.89
2018-01-03T01:51:02.744Z,58.89
2018-01-03T01:51:03.314Z,58.89
2018-01-03T01:51:03.912Z,58.89
2018-01-03T01:51:04.512Z,59.08
2018-01-03T01:51:05.114Z,59.08
2018-01-03T01:51:05.712Z,58.89
2018-01-03T01:51:06.311Z,58.98
2018-01-03T01:51:06.912Z,58.89
2018-01-03T01:52:00.469Z,59.08
2018-01-03T01:52:01.067Z,59.08
2018-01-03T01:52:01.667Z,58.89
2018-01-03T01:52:02.266Z,58.70
2018-01-03T01:52:02.866Z,59.17
2018-01-03T01:52:03.466Z,58.70
2018-01-03T01:52:04.064Z,58.70
2018-01-03T01:52:04.665Z,58.70
2018-01-03T01:52:58.120Z,58.70
2018-01-03T01:52:58.718Z,58.70
2018-01-03T01:52:59.318Z,58.80
2018-01-03T01:52:59.922Z,58.70
2018-01-03T01:53:00.517Z,58.70
2018-01-03T01:53:01.117Z,58.70
2018-01-03T01:53:01.717Z,58.70
2018-01-03T01:53:02.316Z,58.70
2018-01-03T01:53:56.797Z,58.51
2018-01-03T01:53:57.393Z,58.32
2018-01-03T01:53:57.992Z,58.80
2018-01-03T01:53:58.593Z,58.32
2018-01-03T01:53:59.218Z,58.61
2018-01-03T01:53:59.794Z,58.80
2018-01-03T01:54:00.392Z,58.32
2018-01-03T01:54:00.993Z,58.41
2018-01-03T01:54:55.474Z,58.51
2018-01-03T01:54:56.066Z,58.51
2018-01-03T01:54:56.667Z,58.51
2018-01-03T01:54:57.276Z,58.80
2018-01-03T01:54:57.871Z,58.51
2018-01-03T01:54:58.466Z,58.51
2018-01-03T01:54:59.068Z,58.51
2018-01-03T01:54:59.665Z,58.51
2018-01-03T01:55:54.182Z,58.80
2018-01-03T01:55:54.744Z,58.61
2018-01-03T01:55:55.343Z,58.80
2018-01-03T01:55:55.943Z,58.61
2018-01-03T01:55:56.543Z,58.80
2018-01-03T01:55:57.148Z,58.61
2018-01-03T01:55:57.742Z,58.70
2018-01-03T01:55:58.343Z,58.32
2018-01-03T01:56:51.805Z,58.22
2018-01-03T01:56:52.398Z,58.32
2018-01-03T01:56:52.995Z,58.13
2018-01-03T01:56:53.596Z,58.22
2018-01-03T01:56:54.195Z,58.32
2018-01-03T01:56:54.795Z,58.41
2018-01-03T01:56:55.396Z,58.22
2018-01-03T01:56:55.996Z,58.32
2018-01-03T01:57:50.480Z,58.22
2018-01-03T01:57:51.071Z,58.22
2018-01-03T01:57:51.671Z,58.32
2018-01-03T01:57:52.271Z,58.61
2018-01-03T01:57:52.871Z,58.13
2018-01-03T01:57:53.472Z,58.22
2018-01-03T01:57:54.071Z,58.13
2018-01-03T01:57:54.671Z,58.51
2018-01-03T01:58:48.128Z,58.51
2018-01-03T01:58:48.725Z,58.32
2018-01-03T01:58:49.322Z,58.61
2018-01-03T01:58:49.923Z,58.61
2018-01-03T01:58:50.523Z,58.41
2018-01-03T01:58:51.124Z,58.32
2018-01-03T01:58:51.723Z,58.61
2018-01-03T01:58:52.344Z,58.22
2018-01-03T01:59:46.807Z,58.98
2018-01-03T01:59:47.399Z,58.98
2018-01-03T01:59:48.003Z,58.98
2018-01-03T01:59:48.598Z,58.89
2018-01-03T01:59:49.197Z,58.80
2018-01-03T01:59:49.799Z,58.98
2018-01-03T01:59:50.398Z,58.89
2018-01-03T01:59:50.997Z,58.98
2018-01-03T02:00:45.479Z,58.80
2018-01-03T02:00:46.074Z,58.80
2018-01-03T02:00:46.673Z,58.80
2018-01-03T02:00:47.276Z,58.80
2018-01-03T02:00:47.873Z,58.80
2018-01-03T02:00:48.474Z,58.80
2018-01-03T02:00:49.073Z,58.80
2018-01-03T02:00:49.673Z,58.80
2018-01-03T02:01:43.265Z,58.70
2018-01-03T02:01:43.829Z,58.89
2018-01-03T02:01:44.429Z,58.80
2018-01-03T02:01:45.029Z,58.70
2018-01-03T02:01:45.628Z,58.98
2018-01-03T02:01:46.227Z,58.98
2018-01-03T02:01:46.828Z,58.89
2018-01-03T02:01:47.427Z,58.98
2018-01-03T02:02:40.886Z,59.08
2018-01-03T02:02:41.481Z,58.98
2018-01-03T02:02:42.083Z,58.98
2018-01-03T02:02:42.680Z,58.98
2018-01-03T02:02:43.280Z,58.98
2018-01-03T02:02:43.882Z,58.89
2018-01-03T02:02:44.481Z,58.98
2018-01-03T02:02:45.080Z,59.08
2018-01-03T02:03:38.538Z,59.08
2018-01-03T02:03:39.134Z,58.98
2018-01-03T02:03:39.732Z,59.27
2018-01-03T02:03:40.332Z,58.98
2018-01-03T02:03:40.931Z,59.65
2018-01-03T02:03:41.532Z,58.89
2018-01-03T02:03:42.132Z,59.08
2018-01-03T02:03:42.732Z,58.98
2018-01-03T02:04:36.188Z,59.65
2018-01-03T02:04:36.784Z,59.65
2018-01-03T02:04:37.389Z,59.65
2018-01-03T02:04:37.984Z,59.65
2018-01-03T02:04:38.583Z,59.65
2018-01-03T02:04:39.184Z,59.65
2018-01-03T02:04:39.783Z,59.46
2018-01-03T02:04:40.384Z,59.74
2018-01-03T02:05:34.863Z,59.93
2018-01-03T02:05:35.474Z,59.93
2018-01-03T02:05:36.060Z,59.74
2018-01-03T02:05:36.659Z,59.74
2018-01-03T02:05:37.261Z,59.74
2018-01-03T02:05:37.859Z,59.74
2018-01-03T02:05:38.460Z,59.74
2018-01-03T02:05:39.057Z,60.03
2018-01-03T02:06:32.516Z,60.22
2018-01-03T02:06:33.112Z,60.03
2018-01-03T02:06:33.712Z,60.22
2018-01-03T02:06:34.311Z,60.22
2018-01-03T02:06:34.911Z,60.31
2018-01-03T02:06:35.512Z,60.22
2018-01-03T02:06:36.110Z,60.22
2018-01-03T02:06:36.710Z,60.22
2018-01-03T02:07:30.225Z,60.41
2018-01-03T02:07:30.766Z,60.13
2018-01-03T02:07:31.364Z,60.22
2018-01-03T02:07:31.964Z,60.22
2018-01-03T02:07:32.564Z,60.13
2018-01-03T02:07:33.163Z,60.13
2018-01-03T02:07:33.763Z,60.03
2018-01-03T02:07:34.367Z,60.03
2018-01-03T02:08:27.818Z,60.79
2018-01-03T02:08:28.415Z,60.60
2018-01-03T02:08:29.015Z,60.79
2018-01-03T02:08:29.615Z,60.79
2018-01-03T02:08:30.215Z,60.88
2018-01-03T02:08:30.824Z,60.60
2018-01-03T02:08:31.414Z,60.88
2018-01-03T02:08:32.015Z,60.69
2018-01-03T02:09:25.469Z,60.88
2018-01-03T02:09:26.067Z,60.98
2018-01-03T02:09:26.681Z,60.88
2018-01-03T02:09:27.267Z,60.31
2018-01-03T02:09:27.868Z,60.60
2018-01-03T02:09:28.467Z,60.60
2018-01-03T02:09:29.066Z,60.79
2018-01-03T02:09:29.670Z,60.41
2018-01-03T02:10:23.124Z,60.98
2018-01-03T02:10:23.719Z,61.07
2018-01-03T02:10:24.319Z,61.26
2018-01-03T02:10:24.918Z,60.79
2018-01-03T02:10:25.524Z,60.79
2018-01-03T02:10:26.120Z,61.26
2018-01-03T02:10:26.718Z,60.69
2018-01-03T02:10:27.335Z,61.36
2018-01-03T02:11:21.798Z,61.17
2018-01-03T02:11:22.394Z,61.17
2018-01-03T02:11:23.000Z,61.17
2018-01-03T02:11:23.592Z,61.17
2018-01-03T02:11:24.192Z,61.17
2018-01-03T02:11:24.791Z,61.26
2018-01-03T02:11:25.392Z,61.17
2018-01-03T02:11:25.994Z,61.26
2018-01-03T02:12:19.450Z,61.17
2018-01-03T02:12:20.046Z,61.17
2018-01-03T02:12:20.659Z,61.17
2018-01-03T02:12:21.245Z,61.55
2018-01-03T02:12:21.851Z,61.17
2018-01-03T02:12:22.445Z,61.45
2018-01-03T02:12:23.046Z,61.17
2018-01-03T02:12:23.645Z,61.07
2018-01-03T02:13:17.128Z,61.17
2018-01-03T02:13:17.698Z,61.36
2018-01-03T02:13:18.322Z,61.36
2018-01-03T02:13:18.897Z,61.36
2018-01-03T02:13:19.500Z,61.26
2018-01-03T02:13:20.099Z,61.36
2018-01-03T02:13:20.696Z,61.07
2018-01-03T02:13:21.295Z,61.26
2018-01-03T02:14:14.754Z,61.36
2018-01-03T02:14:15.351Z,61.45
2018-01-03T02:14:15.948Z,60.98
2018-01-03T02:14:16.549Z,61.07
2018-01-03T02:14:17.151Z,61.45
2018-01-03T02:14:17.749Z,61.07
2018-01-03T02:14:18.349Z,61.45
2018-01-03T02:14:18.949Z,61.07
2018-01-03T02:15:12.403Z,61.45
2018-01-03T02:15:13.001Z,61.65
2018-01-03T02:15:13.599Z,61.55
2018-01-03T02:15:14.201Z,61.55
2018-01-03T02:15:14.802Z,61.93
2018-01-03T02:15:15.399Z,62.21
2018-01-03T02:15:15.999Z,61.55
2018-01-03T02:15:16.601Z,61.77
2018-01-03T02:16:10.644Z,62.02
2018-01-03T02:16:11.164Z,61.36
2018-01-03T02:16:11.764Z,61.45
2018-01-03T02:16:12.364Z,62.12
2018-01-03T02:16:12.963Z,62.15
2018-01-03T02:16:13.564Z,61.65
2018-01-03T02:16:14.163Z,61.96
2018-01-03T02:17:07.708Z,61.83
2018-01-03T02:17:08.308Z,61.74
2018-01-03T02:17:08.904Z,61.96
2018-01-03T02:17:09.504Z,61.74
2018-01-03T02:17:10.103Z,61.74
2018-01-03T02:17:10.705Z,61.87
2018-01-03T02:17:11.307Z,61.65
2018-01-03T02:17:11.904Z,61.74
2018-01-03T02:18:32.954Z,62.40
2018-01-03T02:18:33.501Z,62.40
2018-01-03T02:18:34.104Z,62.40
2018-01-03T02:18:34.702Z,62.43
2018-01-03T02:18:35.301Z,62.34
2018-01-03T02:18:35.903Z,62.34
2018-01-03T02:18:36.501Z,62.31
2018-01-03T02:18:37.101Z,62.40
2018-01-03T02:18:37.701Z,62.34
2018-01-03T02:18:38.299Z,62.15
2018-01-03T02:18:38.900Z,62.34
2018-01-03T02:18:39.500Z,62.31
2018-01-03T02:19:33.526Z,62.53
2018-01-03T02:19:34.122Z,62.53
2018-01-03T02:19:34.721Z,62.72
2018-01-03T02:19:35.324Z,62.31
2018-01-03T02:19:35.922Z,62.69
2018-01-03T02:19:36.523Z,62.62
2018-01-03T02:19:37.121Z,62.59
2018-01-03T02:20:30.667Z,63.20
2018-01-03T02:20:31.264Z,63.26
2018-01-03T02:20:31.865Z,63.20
2018-01-03T02:20:32.463Z,63.20
2018-01-03T02:20:33.064Z,63.17
2018-01-03T02:20:33.663Z,63.17
2018-01-03T02:20:34.263Z,63.20
2018-01-03T02:20:34.865Z,63.17
2018-01-03T02:21:28.318Z,63.17
2018-01-03T02:21:28.916Z,63.26
2018-01-03T02:21:29.516Z,63.17
2018-01-03T02:21:30.115Z,63.07
2018-01-03T02:21:30.715Z,62.88
2018-01-03T02:21:31.315Z,63.17
2018-01-03T02:21:31.914Z,63.17
2018-01-03T02:21:32.516Z,63.10
2018-01-03T02:22:26.059Z,63.07
2018-01-03T02:22:26.566Z,63.17
2018-01-03T02:22:27.166Z,63.17
2018-01-03T02:22:27.768Z,63.01
2018-01-03T02:22:28.366Z,63.07
2018-01-03T02:22:28.966Z,63.20
2018-01-03T02:22:29.565Z,62.97
2018-01-03T02:22:30.166Z,63.10
2018-01-03T02:23:23.621Z,63.17
2018-01-03T02:23:24.217Z,63.10
2018-01-03T02:23:24.817Z,63.10
2018-01-03T02:23:25.419Z,62.88
2018-01-03T02:23:26.017Z,63.17
2018-01-03T02:23:26.616Z,63.10
2018-01-03T02:23:27.216Z,63.17
2018-01-03T02:23:27.817Z,62.91
2018-01-03T02:24:21.303Z,63.26
2018-01-03T02:24:21.868Z,63.29
2018-01-03T02:24:22.469Z,63.35
2018-01-03T02:24:23.069Z,63.29
2018-01-03T02:24:23.668Z,63.10
2018-01-03T02:24:24.270Z,63.29
2018-01-03T02:24:24.868Z,63.35
2018-01-03T02:24:25.470Z,63.26
2018-01-03T02:25:18.924Z,63.86
2018-01-03T02:25:19.521Z,63.86
2018-01-03T02:25:20.126Z,63.86
2018-01-03T02:25:20.720Z,63.95
2018-01-03T02:25:21.321Z,63.86
2018-01-03T02:25:21.920Z,63.86
2018-01-03T02:25:22.521Z,63.86
2018-01-03T02:25:23.121Z,63.86
2018-01-03T02:26:17.087Z,63.67
2018-01-03T02:26:17.684Z,63.67
2018-01-03T02:26:18.287Z,63.48
2018-01-03T02:26:18.885Z,63.67
2018-01-03T02:26:19.483Z,63.67
2018-01-03T02:26:20.083Z,63.67
2018-01-03T02:26:20.683Z,63.57
2018-01-03T02:27:14.227Z,64.34
2018-01-03T02:27:14.823Z,64.34
2018-01-03T02:27:15.423Z,64.34
2018-01-03T02:27:16.023Z,64.24
2018-01-03T02:27:16.623Z,64.24
2018-01-03T02:27:17.224Z,64.24
2018-01-03T02:27:17.826Z,64.34
2018-01-03T02:27:18.423Z,64.24
2018-01-03T02:28:11.902Z,64.24
2018-01-03T02:28:12.475Z,64.24
2018-01-03T02:28:13.074Z,64.34
2018-01-03T02:28:13.674Z,64.24
2018-01-03T02:28:14.274Z,64.24
2018-01-03T02:28:14.874Z,64.34
2018-01-03T02:28:15.474Z,64.24
2018-01-03T02:28:16.074Z,64.24
2018-01-03T02:29:09.532Z,64.81
2018-01-03T02:29:10.128Z,64.81
2018-01-03T02:29:10.727Z,64.90
2018-01-03T02:29:11.332Z,64.90
2018-01-03T02:29:11.927Z,64.90
2018-01-03T02:29:12.527Z,64.90
2018-01-03T02:29:13.127Z,64.90
2018-01-03T02:29:13.726Z,64.90
2018-01-03T02:30:07.218Z,64.43
2018-01-03T02:30:07.780Z,64.34
2018-01-03T02:30:08.379Z,64.53
2018-01-03T02:30:08.983Z,64.43
2018-01-03T02:30:09.579Z,64.62
2018-01-03T02:30:10.177Z,64.62
2018-01-03T02:30:10.777Z,64.34
2018-01-03T02:30:11.378Z,64.43
2018-01-03T02:31:04.834Z,64.62
2018-01-03T02:31:05.431Z,64.34
2018-01-03T02:31:06.030Z,64.53
2018-01-03T02:31:06.632Z,64.14
2018-01-03T02:31:07.237Z,64.72
2018-01-03T02:31:07.839Z,64.53
2018-01-03T02:31:08.431Z,64.62
2018-01-03T02:31:09.031Z,64.14
2018-01-03T02:32:02.487Z,64.24
2018-01-03T02:32:03.089Z,64.43
2018-01-03T02:32:03.684Z,64.43
2018-01-03T02:32:04.284Z,64.24
2018-01-03T02:32:04.882Z,64.43
2018-01-03T02:32:05.483Z,64.24
2018-01-03T02:32:06.083Z,64.24
2018-01-03T02:32:06.683Z,64.43
2018-01-03T02:33:00.142Z,64.14
2018-01-03T02:33:00.737Z,64.05
2018-01-03T02:33:01.335Z,64.43
2018-01-03T02:33:01.934Z,64.43
2018-01-03T02:33:02.533Z,64.34
2018-01-03T02:33:03.133Z,64.05
2018-01-03T02:33:03.734Z,64.24
2018-01-03T02:33:04.344Z,64.43
2018-01-03T02:52:05.521Z,61.68
2018-01-03T02:52:06.087Z,61.96
2018-01-03T02:52:06.683Z,62.05
2018-01-03T02:52:07.282Z,61.96
2018-01-03T02:52:07.882Z,61.96
2018-01-03T02:52:08.481Z,61.96
2018-01-03T02:52:09.081Z,61.96
2018-01-03T02:52:09.681Z,62.05
2018-01-03T02:53:03.144Z,61.10
2018-01-03T02:53:03.737Z,61.01
2018-01-03T02:53:04.363Z,61.01
2018-01-03T02:53:04.934Z,61.39
2018-01-03T02:53:05.536Z,61.01
2018-01-03T02:53:06.140Z,61.01
2018-01-03T02:53:06.733Z,61.01
2018-01-03T02:53:07.335Z,61.20
2018-01-03T02:54:01.302Z,60.82
2018-01-03T02:54:01.907Z,61.10
2018-01-03T02:54:02.499Z,61.10
2018-01-03T02:54:03.100Z,61.10
2018-01-03T02:54:03.697Z,61.01
2018-01-03T02:54:04.298Z,61.10
2018-01-03T02:54:04.899Z,61.01
2018-01-03T02:54:58.342Z,60.63
2018-01-03T02:54:58.936Z,60.82
2018-01-03T02:54:59.537Z,60.82
2018-01-03T02:55:00.136Z,60.82
2018-01-03T02:55:00.743Z,61.01
2018-01-03T02:55:01.339Z,60.91
2018-01-03T02:55:01.937Z,60.91
2018-01-03T02:55:02.537Z,60.82
2018-01-03T02:55:55.990Z,60.35
2018-01-03T02:55:56.589Z,60.25
2018-01-03T02:55:57.188Z,60.25
2018-01-03T02:55:57.789Z,60.25
2018-01-03T02:55:58.387Z,60.16
2018-01-03T02:55:58.988Z,60.25
2018-01-03T02:55:59.587Z,60.35
2018-01-03T02:56:00.187Z,60.25
2018-01-03T02:56:53.645Z,59.87
2018-01-03T02:56:54.240Z,59.87
2018-01-03T02:56:54.840Z,59.87
2018-01-03T02:56:55.439Z,59.87
2018-01-03T02:56:56.042Z,59.87
2018-01-03T02:56:56.639Z,59.77
2018-01-03T02:56:57.241Z,59.87
2018-01-03T02:56:57.848Z,59.77
2018-01-03T02:57:51.320Z,59.68
2018-01-03T02:57:51.892Z,59.87
2018-01-03T02:57:52.492Z,59.68
2018-01-03T02:57:53.108Z,59.68
2018-01-03T02:57:53.690Z,59.68
2018-01-03T02:57:54.298Z,59.49
2018-01-03T02:57:54.895Z,59.77
2018-01-03T02:57:55.492Z,59.58
2018-01-03T02:58:48.947Z,59.68
2018-01-03T02:58:49.544Z,59.39
2018-01-03T02:58:50.143Z,59.68
2018-01-03T02:58:50.743Z,59.39
2018-01-03T02:58:51.343Z,59.49
2018-01-03T02:58:51.946Z,59.68
2018-01-03T02:58:52.543Z,59.39
2018-01-03T02:58:53.143Z,59.68
2018-01-03T02:59:46.629Z,59.20
2018-01-03T02:59:47.195Z,59.01
2018-01-03T02:59:47.795Z,59.39
2018-01-03T02:59:48.406Z,59.20
2018-01-03T02:59:48.998Z,59.11
2018-01-03T02:59:49.596Z,59.01
2018-01-03T02:59:50.195Z,59.01
2018-01-03T02:59:50.796Z,59.01
2018-01-03T03:00:44.252Z,58.83
2018-01-03T03:00:44.848Z,58.83
2018-01-03T03:00:45.448Z,58.83
2018-01-03T03:00:46.050Z,58.83
2018-01-03T03:00:46.651Z,58.83
2018-01-03T03:00:47.248Z,59.11
2018-01-03T03:00:47.847Z,58.83
2018-01-03T03:00:48.451Z,58.73
2018-01-03T03:01:42.926Z,58.73
2018-01-03T03:01:43.521Z,58.63
2018-01-03T03:01:44.123Z,58.73
2018-01-03T03:01:44.724Z,58.83
2018-01-03T03:01:45.329Z,58.73
2018-01-03T03:01:45.922Z,58.73
2018-01-03T03:01:46.522Z,58.73
2018-01-03T03:01:47.121Z,58.83
2018-01-03T03:02:40.612Z,58.25
2018-01-03T03:02:41.178Z,58.35
2018-01-03T03:02:41.777Z,58.25
2018-01-03T03:02:42.381Z,58.35
2018-01-03T03:02:42.978Z,58.44
2018-01-03T03:02:43.575Z,58.35
2018-01-03T03:02:44.174Z,58.35
2018-01-03T03:02:44.774Z,58.35
2018-01-03T03:03:38.232Z,57.87
2018-01-03T03:03:38.828Z,57.87
2018-01-03T03:03:39.433Z,58.16
2018-01-03T03:03:40.028Z,58.16
2018-01-03T03:03:40.629Z,57.78
2018-01-03T03:03:41.227Z,57.78
2018-01-03T03:03:41.826Z,57.87
2018-01-03T03:03:42.430Z,57.87
2018-01-03T03:04:35.974Z,57.97
2018-01-03T03:04:36.479Z,57.97
2018-01-03T03:04:37.079Z,57.68
2018-01-03T03:04:37.678Z,57.59
2018-01-03T03:04:38.281Z,57.97
2018-01-03T03:04:38.879Z,57.97
2018-01-03T03:04:39.479Z,57.97
2018-01-03T03:04:40.078Z,57.87
2018-01-03T03:05:34.558Z,58.16
2018-01-03T03:05:35.154Z,58.35
2018-01-03T03:05:35.753Z,57.97
2018-01-03T03:05:36.372Z,58.06
2018-01-03T03:05:36.956Z,58.25
2018-01-03T03:05:37.554Z,58.16
2018-01-03T03:05:38.153Z,58.06
2018-01-03T03:05:38.752Z,58.06
2018-01-03T03:06:32.215Z,58.25
2018-01-03T03:06:32.807Z,58.25
2018-01-03T03:06:33.409Z,58.25
2018-01-03T03:06:34.007Z,58.16
2018-01-03T03:06:34.607Z,58.06
2018-01-03T03:06:35.207Z,58.25
2018-01-03T03:06:35.806Z,58.44
2018-01-03T03:06:36.405Z,58.35
2018-01-03T03:07:30.884Z,57.68
2018-01-03T03:07:31.481Z,57.68
2018-01-03T03:07:32.084Z,57.68
2018-01-03T03:07:32.681Z,57.59
2018-01-03T03:07:33.281Z,57.87
2018-01-03T03:07:33.881Z,57.87
2018-01-03T03:07:34.487Z,57.78
2018-01-03T03:07:35.082Z,57.87
2018-01-03T03:08:29.885Z,57.87
2018-01-03T03:08:30.391Z,57.87
2018-01-03T03:08:30.990Z,57.68
2018-01-03T03:08:31.588Z,57.78
2018-01-03T03:08:32.194Z,57.87
2018-01-03T03:08:32.787Z,57.87
2018-01-03T03:08:33.386Z,57.87
2018-01-03T03:08:33.985Z,57.78
2018-01-03T03:09:27.541Z,57.21
2018-01-03T03:09:28.116Z,57.21
2018-01-03T03:09:28.719Z,57.68
2018-01-03T03:09:29.317Z,57.21
2018-01-03T03:09:29.919Z,57.68
2018-01-03T03:09:30.517Z,57.21
2018-01-03T03:09:31.119Z,57.68
2018-01-03T03:09:31.717Z,57.30
2018-01-03T03:10:25.174Z,57.21
2018-01-03T03:10:25.770Z,57.68
2018-01-03T03:10:26.370Z,57.68
2018-01-03T03:10:26.974Z,57.68
2018-01-03T03:10:27.580Z,57.68
2018-01-03T03:10:28.169Z,57.68
2018-01-03T03:10:28.769Z,57.59
2018-01-03T03:10:29.368Z,57.40
2018-01-03T03:11:22.829Z,57.50
2018-01-03T03:11:23.434Z,57.68
2018-01-03T03:11:24.021Z,57.50
2018-01-03T03:11:24.620Z,57.68
2018-01-03T03:11:25.220Z,57.78
2018-01-03T03:11:25.819Z,57.78
2018-01-03T03:11:26.419Z,57.40
2018-01-03T03:11:27.035Z,57.50
2018-01-03T03:12:20.479Z,57.97
2018-01-03T03:12:21.073Z,57.97
2018-01-03T03:12:21.672Z,58.06
2018-01-03T03:12:22.273Z,57.97
2018-01-03T03:12:22.872Z,57.68
2018-01-03T03:12:23.476Z,57.78
2018-01-03T03:12:24.071Z,57.87
2018-01-03T03:12:24.671Z,57.78
2018-01-03T03:13:18.131Z,57.78
2018-01-03T03:13:18.725Z,57.87
2018-01-03T03:13:19.324Z,57.78
2018-01-03T03:13:19.925Z,57.78
2018-01-03T03:13:20.535Z,57.78
2018-01-03T03:13:21.123Z,57.68
2018-01-03T03:13:21.724Z,57.68
2018-01-03T03:13:22.324Z,57.78
2018-01-03T03:14:15.810Z,57.59
2018-01-03T03:14:16.375Z,57.68
2018-01-03T03:14:16.975Z,57.59
2018-01-03T03:14:17.574Z,57.50
2018-01-03T03:14:18.174Z,57.59
2018-01-03T03:14:18.775Z,57.68
2018-01-03T03:14:19.375Z,57.68
2018-01-03T03:14:19.973Z,57.59
2018-01-03T03:15:13.432Z,57.97
2018-01-03T03:15:14.028Z,57.59
2018-01-03T03:15:14.627Z,57.68
2018-01-03T03:15:15.226Z,57.68
2018-01-03T03:15:15.831Z,57.78
2018-01-03T03:15:16.426Z,57.68
2018-01-03T03:15:17.029Z,57.78
2018-01-03T03:15:17.626Z,57.78
2018-01-03T03:16:11.083Z,57.78
2018-01-03T03:16:11.678Z,57.59
2018-01-03T03:16:12.278Z,58.06
2018-01-03T03:16:12.877Z,58.06
2018-01-03T03:16:13.480Z,57.97
2018-01-03T03:16:14.077Z,58.06
2018-01-03T03:16:14.678Z,58.06
2018-01-03T03:16:15.278Z,57.97
2018-01-03T03:17:08.739Z,57.97
2018-01-03T03:17:09.332Z,57.59
2018-01-03T03:17:09.929Z,57.97
2018-01-03T03:17:10.529Z,57.68
2018-01-03T03:17:11.129Z,57.97
2018-01-03T03:17:11.729Z,57.97
2018-01-03T03:17:12.335Z,58.16
2018-01-03T03:17:12.928Z,57.78
2018-01-03T03:18:06.389Z,57.78
2018-01-03T03:18:06.981Z,57.87
2018-01-03T03:18:07.581Z,57.87
2018-01-03T03:18:08.180Z,57.78
2018-01-03T03:18:08.782Z,57.78
2018-01-03T03:18:09.381Z,57.78
2018-01-03T03:18:09.981Z,57.78
2018-01-03T03:18:10.588Z,57.78
2018-01-03T03:19:04.039Z,57.78
2018-01-03T03:19:04.635Z,57.87
2018-01-03T03:19:05.233Z,57.87
2018-01-03T03:19:05.833Z,57.97
2018-01-03T03:19:06.434Z,57.78
2018-01-03T03:19:07.033Z,57.78
2018-01-03T03:19:07.648Z,57.78
2018-01-03T03:19:08.233Z,57.87
2018-01-03T03:20:01.715Z,57.87
2018-01-03T03:20:02.285Z,57.78
2018-01-03T03:20:02.885Z,58.06
2018-01-03T03:20:03.485Z,57.87
2018-01-03T03:20:04.084Z,57.68
2018-01-03T03:20:04.685Z,57.87
2018-01-03T03:20:05.284Z,57.97
2018-01-03T03:20:05.886Z,57.78
2018-01-03T03:20:59.340Z,57.78
2018-01-03T03:20:59.936Z,57.78
2018-01-03T03:21:00.536Z,57.78
2018-01-03T03:21:01.137Z,57.97
2018-01-03T03:21:01.737Z,57.97
2018-01-03T03:21:02.335Z,57.97
2018-01-03T03:21:02.936Z,57.78
2018-01-03T03:21:03.535Z,58.44
2018-01-03T03:21:56.990Z,58.06
2018-01-03T03:21:57.590Z,58.16
2018-01-03T03:21:58.188Z,58.25
2018-01-03T03:21:58.788Z,58.25
2018-01-03T03:21:59.388Z,58.25
2018-01-03T03:21:59.990Z,58.25
2018-01-03T03:22:00.587Z,58.25
2018-01-03T03:22:01.229Z,58.16
2018-01-03T03:22:54.644Z,58.25
2018-01-03T03:22:55.240Z,58.25
2018-01-03T03:22:55.841Z,58.06
2018-01-03T03:22:56.441Z,58.44
2018-01-03T03:22:57.042Z,58.16
2018-01-03T03:22:57.645Z,58.16
2018-01-03T03:22:58.244Z,58.16
2018-01-03T03:22:58.839Z,58.25
2018-01-03T03:23:52.301Z,58.06
2018-01-03T03:23:52.892Z,58.06
2018-01-03T03:23:53.492Z,58.06
2018-01-03T03:23:54.093Z,58.06
2018-01-03T03:23:54.692Z,58.16
2018-01-03T03:23:55.291Z,58.06
2018-01-03T03:23:55.892Z,58.16
2018-01-03T03:23:56.492Z,57.97
2018-01-03T03:24:49.973Z,58.44
2018-01-03T03:24:50.542Z,58.25
2018-01-03T03:24:51.144Z,58.25
2018-01-03T03:24:51.744Z,58.25
2018-01-03T03:24:52.343Z,58.25
2018-01-03T03:24:52.943Z,58.16
2018-01-03T03:24:53.542Z,58.54
2018-01-03T03:24:54.143Z,58.25
2018-01-03T03:25:47.599Z,58.44
2018-01-03T03:25:48.194Z,58.44
2018-01-03T03:25:48.795Z,58.35
2018-01-03T03:25:49.395Z,58.25
2018-01-03T03:25:49.995Z,58.35
2018-01-03T03:25:50.595Z,58.25
2018-01-03T03:25:51.195Z,58.16
2018-01-03T03:25:51.794Z,58.35
2018-01-03T03:26:45.251Z,58.25
2018-01-03T03:26:45.847Z,58.35
2018-01-03T03:26:46.446Z,58.35
2018-01-03T03:26:47.047Z,58.44
2018-01-03T03:26:47.646Z,58.44
2018-01-03T03:26:48.249Z,58.44
2018-01-03T03:26:48.846Z,58.44
2018-01-03T03:26:49.446Z,58.25
2018-01-03T03:27:42.903Z,57.87
2018-01-03T03:27:43.498Z,57.87
2018-01-03T03:27:44.097Z,58.25
2018-01-03T03:27:44.698Z,57.87
2018-01-03T03:27:45.297Z,58.35
2018-01-03T03:27:45.897Z,58.44
2018-01-03T03:27:46.497Z,57.97
2018-01-03T03:27:47.098Z,57.87
2018-01-03T03:28:40.556Z,58.35
2018-01-03T03:28:41.152Z,58.25
2018-01-03T03:28:41.751Z,58.25
2018-01-03T03:28:42.354Z,58.35
2018-01-03T03:28:42.952Z,58.25
2018-01-03T03:28:43.554Z,58.35
2018-01-03T03:28:44.152Z,58.25
2018-01-03T03:28:44.755Z,58.25
2018-01-03T03:29:38.237Z,59.11
2018-01-03T03:29:38.802Z,58.83
2018-01-03T03:29:39.403Z,59.01
2018-01-03T03:29:40.003Z,59.01
2018-01-03T03:29:40.604Z,59.11